Details From KSHV - Shreveport Rgnl
To KTUP - Tupelo Rgnl
Flight Number -
Tags Standard
Created
Modified
Stats Distance 277 nm / 513 km
Max Altitude 0 ft / 0 m
Waypoints 3
Social Downloads 0
Likes 0
Share VATSIM

Download

Looking for another format? Having issues loading an existing format? Contact us
Advertisement - Login to hide

Notes

generated

Route

KSHV R3106 KTUP

ID Type Via Altitude Latitude Longitude Leg Dist Tot Dist Heading (true) Name
O KSHV APT - 0 ft / 0 m 32.44506˚ -93.83292˚ - 0 nm - SHREVEPORT RGNL
R3106 FIX - 0 ft / 0 m 34.27704˚ -88.76992˚ 276 nm 276 nm 65° / 68° -
O KTUP APT - 0 ft / 0 m 34.27704˚ -88.76992˚ 0 nm 276 nm 0° / 180° -

Altitude Profile

Advertisement - Login to hide

Weather


0- 5 10 15 20 25 30 35+ Temperature / ° C

Clouds and Precipitation
Forecast for 2017-12-12 12:00 UTC. Updated an hour ago

Ground ~20,000 ft ~40,000 ft Winds

KSHV

Details ICAO KSHV (SHV)
Name SHREVEPORT RGNL
Region United States
Timezone America/Chicago (UTC-6.0)
Stats Elevation 257 ft / 78 m (AMSL)
Location 32.446960° -93.825410°
Runways 2
Magnetic Variation 1.436° E

METAR

KSHV 120756Z 33007KT 10SM CLR 12/M04 A3014 RMK AO2 SLP203 T01171044

Decode

TAF

KSHV 120523Z 1206/1306 30012KT P6SM SKC FM121500 34014G19KT P6SM SKC FM121900 33010KT P6SM SKC FM130000 30004KT P6SM SKC

Decode

Departure Runways

ID Width Length Bearing (true) Bearing (mag) Surface Threshold Offset Overrun Length
05 150 ft / 46 m 6,197 ft / 1,889 m 60.78° 59.34° Asphalt 0 ft / 0 m 102 ft / 31 m
14 200 ft / 61 m 8,361 ft / 2,548 m 142.84° 141.40° Asphalt 0 ft / 0 m 102 ft / 31 m
23 150 ft / 46 m 6,197 ft / 1,889 m 240.79° 239.35° Asphalt 0 ft / 0 m 102 ft / 31 m
32 200 ft / 61 m 8,361 ft / 2,548 m 322.85° 321.41° Asphalt 374 ft / 114 m 102 ft / 31 m

KTUP

Details ICAO KTUP (TUP)
Name TUPELO RGNL
Region United States
Timezone America/Chicago (UTC-6.0)
Stats Elevation 346 ft / 105 m (AMSL)
Location 34.268111° -88.769894°
Runways 1
Magnetic Variation 2.133° W

METAR

KTUP 120753Z AUTO 31010KT 10SM CLR 11/M03 A2998 RMK AO2 SLP151 T01061033

Decode

TAF

KTUP 120537Z 1206/1306 34010G16KT P6SM SCT035 BKN150 TEMPO 1212/1215 BKN030 FM121500 36015G20KT P6SM FEW030 FEW250 FM122200 33004KT P6SM SKC

Decode

Destination Runways

ID Width Length Bearing (true) Bearing (mag) Surface Threshold Offset Overrun Length
18 100 ft / 30 m 6,516 ft / 1,986 m 179.87° 182.00° Asphalt 0 ft / 0 m 0 ft / 0 m
36 100 ft / 30 m 6,516 ft / 1,986 m 359.87° 2.00° Asphalt 0 ft / 0 m 0 ft / 0 m

Approach Navaids

Runway Type Ident Frequency Range Bearing (true) Bearing (mag) Slope Elevation
36 Localiser ITUP 108.50 MHz 18 nm / 33 km 359.86° 1.99° - 346 ft / 105 m (AMSL)
36 Glidescope ITUP 108.50 MHz 10 nm / 19 km 359.87° 2.00° 3.00° 345 ft / 105 m (AMSL)

Popular Alternatives